<?xml version='1.0' encoding='UTF-8'?>
<gpx xmlns="http://www.topografix.com/GPX/1/1" creator="www.balnam.be" version="1.1" xmlns:xsi="http://www.w3.org/2001/XMLSchema-instance" xsi:schemaLocation="http://www.topografix.com/GPX/1/1 http://www.topografix.com/GPX/1/1/gpx.xsd">
<trk>
<name>nvssg64</name>
<cmt>v</cmt>
<desc>Sugny Chemin n°64 </desc>
<link href="https://chemins.be/sugny/chemin/64"/><trkseg>
<trkpt lat="49.812087" lon="4.896560"><time>2026-05-02T22:38:20Z</time></trkpt>
<trkpt lat="49.809718" lon="4.895519"><time>2026-05-02T22:48:20Z</time></trkpt>
<trkpt lat="49.808381" lon="4.894913"><time>2026-05-02T22:58:20Z</time></trkpt>
<trkpt lat="49.807227" lon="4.893644"><time>2026-05-02T23:08:20Z</time></trkpt>
<trkpt lat="49.806964" lon="4.892099"><time>2026-05-02T23:18:20Z</time></trkpt>
<trkpt lat="49.806692" lon="4.890568"><time>2026-05-02T23:28:20Z</time></trkpt>
<trkpt lat="49.806104" lon="4.889533"><time>2026-05-02T23:38:20Z</time></trkpt>
<trkpt lat="49.805484" lon="4.889276"><time>2026-05-02T23:48:20Z</time></trkpt>
<trkpt lat="49.804782" lon="4.889477"><time>2026-05-02T23:58:20Z</time></trkpt>
</trkseg></trk>
<trk>
<name>nvssg64</name>
<cmt>d</cmt>
<desc>Sugny Chemin n°64 </desc>
<link href="https://chemins.be/sugny/chemin/64"/><trkseg>
<trkpt lat="49.804782" lon="4.889477"><time>2026-05-02T23:58:20Z</time></trkpt>
<trkpt lat="49.804027" lon="4.889400"><time>2026-05-03T00:08:20Z</time></trkpt>
<trkpt lat="49.802677" lon="4.887774"><time>2026-05-03T00:18:20Z</time></trkpt>
<trkpt lat="49.800796" lon="4.886281"><time>2026-05-03T00:28:20Z</time></trkpt>
<trkpt lat="49.799561" lon="4.884878"><time>2026-05-03T00:38:20Z</time></trkpt>
<trkpt lat="49.798997" lon="4.884414"><time>2026-05-03T00:48:20Z</time></trkpt>
<trkpt lat="49.798031" lon="4.883251"><time>2026-05-03T00:58:20Z</time></trkpt>
<trkpt lat="49.796868" lon="4.882030"><time>2026-05-03T01:08:20Z</time></trkpt>
<trkpt lat="49.795928" lon="4.881089"><time>2026-05-03T01:18:20Z</time></trkpt>
<trkpt lat="49.795137" lon="4.881123"><time>2026-05-03T01:28:20Z</time></trkpt>
<trkpt lat="49.793788" lon="4.881066"><time>2026-05-03T01:38:20Z</time></trkpt>
<trkpt lat="49.792717" lon="4.881305"><time>2026-05-03T01:48:20Z</time></trkpt>
<trkpt lat="49.792196" lon="4.881341"><time>2026-05-03T01:58:20Z</time></trkpt>
<trkpt lat="49.791554" lon="4.882195"><time>2026-05-03T02:08:20Z</time></trkpt>
<trkpt lat="49.791416" lon="4.882847"><time>2026-05-03T02:18:20Z</time></trkpt>
<trkpt lat="49.791365" lon="4.884138"><time>2026-05-03T02:28:20Z</time></trkpt>
<trkpt lat="49.791364" lon="4.884318"><time>2026-05-03T02:38:20Z</time></trkpt>
<trkpt lat="49.791571" lon="4.884362"><time>2026-05-03T02:48:20Z</time></trkpt>
</trkseg>
</trk>
</gpx>